Airport Name : Lann Bihoue

Other Name : Lorient

ICAO : LFRH

IATA : LRT

FAA :

Latitude : 47.760555

Longitude : -3.44

Country : France

Local Date and Time : 7/19/2018 12:18:00 AM

 

TAF (Terminal Aerodrome Forecast)

TAF LFRH 181700Z 1818/1918 26010KT CAVOK BECMG 1818/1820 03010KT

 

METAR (METeorological Aerodrome Report)

LFRH 182200Z AUTO 03010KT CAVOK 18/12 Q1018 NOSIG

LFRH 182130Z AUTO 03011KT CAVOK 19/12 Q1018 NOSIG

LFRH 182100Z AUTO 03009KT CAVOK 19/12 Q1018 NOSIG

LFRH 182030Z AUTO 04009KT CAVOK 19/12 Q1017 NOSIG

LFRH 182000Z AUTO 03010KT CAVOK 20/12 Q1017 NOSIG

LFRH 181930Z AUTO 05010KT CAVOK 21/12 Q1017 NOSIG

LFRH 181900Z AUTO 03011KT CAVOK 22/13 Q1016 NOSIG

LFRH 181830Z AUTO 04010KT 020V100 CAVOK 23/13 Q1016 NOSIG